createdAt,value
2022-08-02T00:02:21.139Z,1.38
2022-08-02T00:05:23.834Z,1.85
2022-08-02T00:08:26.526Z,1.42
2022-08-02T00:11:30.814Z,1.70
2022-08-02T00:14:33.840Z,1.45
2022-08-02T00:17:36.670Z,1.60
2022-08-02T00:20:39.434Z,1.45
2022-08-02T00:24:05.033Z,1.50
2022-08-02T00:27:09.605Z,1.52
2022-08-02T00:30:13.288Z,1.45
2022-08-02T00:33:16.015Z,1.42
2022-08-02T00:36:38.693Z,2.17
2022-08-02T00:39:42.891Z,1.85
2022-08-02T00:42:46.920Z,1.65
2022-08-02T00:46:02.297Z,1.80
2022-08-02T00:49:06.486Z,1.63
2022-08-02T00:52:09.816Z,1.75
2022-08-02T00:55:12.744Z,1.90
2022-08-02T00:58:21.802Z,1.95
2022-08-02T01:01:38.474Z,1.88
2022-08-02T01:05:00.527Z,1.80
2022-08-02T01:08:04.301Z,1.80
2022-08-02T01:11:07.188Z,1.67
2022-08-02T01:14:13.843Z,2.10
2022-08-02T01:17:21.593Z,1.95
2022-08-02T01:20:50.618Z,1.85
2022-08-02T01:24:04.620Z,2.10
2022-08-02T01:27:26.750Z,2.03
2022-08-02T01:30:33.710Z,1.80
2022-08-02T01:33:42.725Z,2.10
2022-08-02T01:36:49.289Z,1.77
2022-08-02T01:39:55.418Z,1.80
2022-08-02T01:42:58.882Z,1.90
2022-08-02T01:46:05.234Z,2.10
2022-08-02T01:49:13.368Z,1.73
2022-08-02T01:52:23.457Z,1.92
2022-08-02T01:55:35.102Z,1.95
2022-08-02T01:58:53.434Z,2.10
2022-08-02T02:02:00.898Z,1.63
2022-08-02T02:05:06.481Z,1.80
2022-08-02T02:08:11.519Z,1.45
2022-08-02T02:12:05.224Z,1.60
2022-08-02T02:14:38.455Z,1.80
2022-08-02T02:17:53.170Z,1.73
2022-08-02T02:21:08.211Z,1.60
2022-08-02T02:24:11.962Z,1.65
2022-08-02T02:27:17.474Z,1.75
2022-08-02T02:30:20.641Z,1.60
2022-08-02T02:33:29.460Z,1.30
2022-08-02T02:36:34.405Z,1.70
2022-08-02T02:39:41.066Z,1.55
2022-08-02T02:42:49.469Z,1.63
2022-08-02T02:45:54.385Z,1.48
2022-08-02T02:48:59.073Z,1.90
2022-08-02T02:52:03.611Z,1.80
2022-08-02T02:55:07.623Z,1.55
2022-08-02T02:58:11.409Z,1.63
2022-08-02T03:01:53.198Z,1.30
2022-08-02T03:04:58.252Z,1.48
2022-08-02T03:08:01.163Z,1.65
2022-08-02T03:11:04.607Z,1.77
2022-08-02T03:14:11.009Z,2.30
2022-08-02T03:17:13.794Z,1.70
2022-08-02T03:20:19.702Z,1.52
2022-08-02T03:23:22.399Z,1.55
2022-08-02T03:26:25.156Z,2.83
2022-08-02T03:29:30.406Z,1.90
2022-08-02T03:32:36.423Z,2.03
2022-08-02T03:35:43.025Z,1.73
2022-08-02T03:38:47.039Z,1.77
2022-08-02T03:41:51.049Z,1.35
2022-08-02T03:44:54.990Z,1.75
2022-08-02T03:47:59.097Z,1.55
2022-08-02T03:51:03.585Z,1.73
2022-08-02T03:54:07.052Z,1.83
2022-08-02T03:57:11.389Z,1.50
2022-08-02T04:00:19.417Z,1.50
2022-08-02T04:03:22.224Z,1.50
2022-08-02T04:06:27.183Z,1.83
2022-08-02T04:09:31.245Z,1.70
2022-08-02T04:12:33.937Z,1.40
2022-08-02T04:15:38.011Z,1.83
2022-08-02T04:18:44.609Z,1.70
2022-08-02T04:21:52.553Z,1.45
2022-08-02T04:24:59.971Z,1.70
2022-08-02T04:28:17.732Z,1.88
2022-08-02T04:31:22.116Z,1.73
2022-08-02T04:34:24.891Z,1.63
2022-08-02T04:37:29.372Z,1.70
2022-08-02T04:40:32.122Z,1.50
2022-08-02T04:43:40.733Z,2.08
2022-08-02T04:46:49.587Z,1.58
2022-08-02T04:50:03.859Z,2.08
2022-08-02T04:53:16.808Z,1.70
2022-08-02T04:56:23.414Z,1.80
2022-08-02T04:59:30.216Z,2.03
2022-08-02T05:02:41.734Z,1.92
2022-08-02T05:05:50.479Z,1.98
2022-08-02T05:09:01.999Z,1.65
2022-08-02T05:12:14.509Z,2.10
2022-08-02T05:15:23.416Z,2.13
2022-08-02T05:18:32.116Z,2.45
2022-08-02T05:21:42.019Z,1.98
2022-08-02T05:24:57.279Z,2.42
2022-08-02T05:28:09.598Z,2.20
2022-08-02T05:31:19.974Z,2.30
2022-08-02T05:34:33.504Z,2.33
2022-08-02T05:37:43.665Z,2.95
2022-08-02T05:40:57.507Z,3.17
2022-08-02T05:44:06.519Z,2.00
2022-08-02T05:47:14.485Z,1.92
2022-08-02T05:50:24.352Z,2.10
2022-08-02T05:53:41.111Z,1.90
2022-08-02T05:56:58.231Z,2.10
2022-08-02T06:00:11.334Z,2.00
2022-08-02T06:03:26.811Z,2.00
2022-08-02T06:06:39.847Z,2.00
2022-08-02T06:09:56.786Z,1.95
2022-08-02T06:13:16.132Z,1.60
2022-08-02T06:16:32.254Z,1.98
2022-08-02T06:19:52.366Z,1.48
2022-08-02T06:23:02.204Z,1.73
2022-08-02T06:26:13.910Z,1.92
2022-08-02T06:29:26.918Z,1.50
2022-08-02T06:32:48.798Z,1.65
2022-08-02T06:36:05.463Z,1.90
2022-08-02T06:39:15.417Z,1.80
2022-08-02T06:42:27.227Z,1.60
2022-08-02T06:45:33.024Z,1.83
2022-08-02T06:48:36.930Z,1.60
2022-08-02T06:51:39.698Z,2.13
2022-08-02T06:54:42.464Z,1.90
2022-08-02T06:57:45.146Z,1.90
2022-08-02T07:00:49.604Z,2.00
2022-08-02T07:03:52.381Z,1.90
2022-08-02T07:06:57.281Z,1.52
2022-08-02T07:10:01.964Z,2.35
2022-08-02T07:13:04.814Z,2.20
2022-08-02T07:16:09.093Z,2.78
2022-08-02T07:19:11.848Z,2.10
2022-08-02T07:22:15.119Z,2.58
2022-08-02T07:25:18.323Z,2.50
2022-08-02T07:28:24.493Z,2.92
2022-08-02T07:31:28.950Z,2.90
2022-08-02T07:34:31.597Z,3.35
2022-08-02T07:37:55.500Z,2.85
2022-08-02T07:40:58.062Z,3.30
2022-08-02T07:44:00.780Z,2.60
2022-08-02T07:47:05.574Z,2.70
2022-08-02T07:50:09.838Z,2.80
2022-08-02T07:53:12.526Z,3.50
2022-08-02T07:56:15.326Z,2.95
2022-08-02T07:59:18.222Z,3.05
2022-08-02T08:02:24.553Z,3.17
2022-08-02T08:05:27.286Z,3.42
2022-08-02T08:08:30.070Z,3.20
2022-08-02T08:11:32.859Z,3.38
2022-08-02T08:14:35.685Z,3.80
2022-08-02T08:17:39.793Z,3.00
2022-08-02T08:20:42.751Z,3.80
2022-08-02T08:23:45.630Z,3.70
2022-08-02T08:26:48.318Z,3.40
2022-08-02T08:29:51.604Z,3.20
2022-08-02T08:32:55.688Z,3.28
2022-08-02T08:35:59.266Z,3.15
2022-08-02T08:39:05.931Z,3.17
2022-08-02T08:42:11.168Z,3.58
2022-08-02T08:45:13.959Z,3.28
2022-08-02T08:48:30.177Z,3.05
2022-08-02T08:51:38.378Z,3.60
2022-08-02T08:54:42.891Z,3.22
2022-08-02T08:57:46.363Z,2.92
2022-08-02T09:00:49.186Z,2.78
2022-08-02T09:03:55.219Z,3.42
2022-08-02T09:06:58.052Z,3.38
2022-08-02T09:10:00.744Z,3.45
2022-08-02T09:13:37.899Z,3.13
2022-08-02T09:16:34.694Z,3.03
2022-08-02T09:19:39.112Z,3.05
2022-08-02T09:23:07.390Z,2.88
2022-08-02T09:26:11.831Z,2.47
2022-08-02T09:29:15.226Z,2.70
2022-08-02T09:32:18.697Z,2.88
2022-08-02T09:36:07.270Z,3.10
2022-08-02T09:39:01.424Z,3.15
2022-08-02T09:42:10.526Z,2.60
2022-08-02T09:45:13.675Z,2.97
2022-08-02T09:48:16.410Z,3.08
2022-08-02T09:51:22.438Z,2.72
2022-08-02T09:54:27.632Z,3.00
2022-08-02T09:57:33.508Z,3.33
2022-08-02T10:00:52.394Z,2.85
2022-08-02T10:03:57.478Z,2.95
2022-08-02T10:07:04.172Z,3.15
2022-08-02T10:10:08.277Z,3.03
2022-08-02T10:13:11.887Z,3.17
2022-08-02T10:16:24.346Z,3.00
2022-08-02T10:20:00.440Z,2.90
2022-08-02T10:22:52.002Z,2.80
2022-08-02T10:25:56.741Z,3.20
2022-08-02T10:29:03.781Z,2.92
2022-08-02T10:32:13.111Z,2.97
2022-08-02T10:35:25.621Z,2.85
2022-08-02T10:38:32.135Z,2.85
2022-08-02T10:41:51.188Z,2.90
2022-08-02T10:45:11.591Z,3.30
2022-08-02T10:48:16.626Z,2.95
2022-08-02T10:51:24.587Z,2.80
2022-08-02T10:54:35.062Z,2.28
2022-08-02T10:57:40.026Z,2.47
2022-08-02T11:00:53.981Z,2.65
2022-08-02T11:04:10.255Z,2.47
2022-08-02T11:07:19.666Z,2.75
2022-08-02T11:10:38.505Z,2.70
2022-08-02T11:14:07.882Z,2.58
2022-08-02T11:17:14.937Z,2.58
2022-08-02T11:20:23.471Z,2.60
2022-08-02T11:23:44.360Z,2.42
2022-08-02T11:26:58.680Z,2.60
2022-08-02T11:30:16.845Z,2.10
2022-08-02T11:33:26.343Z,2.17
2022-08-02T11:36:35.310Z,2.17
2022-08-02T11:39:43.843Z,2.53
2022-08-02T11:42:52.005Z,2.40
2022-08-02T11:46:07.023Z,2.50
2022-08-02T11:49:17.807Z,2.38
2022-08-02T11:52:35.237Z,2.42
2022-08-02T11:55:46.971Z,2.38
2022-08-02T11:59:14.368Z,2.70
2022-08-02T12:02:25.633Z,1.80
2022-08-02T12:06:05.327Z,2.13
2022-08-02T12:09:13.076Z,2.30
2022-08-02T12:12:28.420Z,1.90
2022-08-02T12:15:50.797Z,2.08
2022-08-02T12:19:14.425Z,2.15
2022-08-02T12:22:30.183Z,2.28
2022-08-02T12:25:41.247Z,2.10
2022-08-02T12:28:50.860Z,2.30
2022-08-02T12:32:07.622Z,1.88
2022-08-02T12:35:26.328Z,1.95
2022-08-02T12:38:38.157Z,2.03
2022-08-02T12:41:54.694Z,2.20
2022-08-02T12:45:13.625Z,1.70
2022-08-02T12:48:37.553Z,1.80
2022-08-02T12:51:59.049Z,2.25
2022-08-02T12:55:22.438Z,1.80
2022-08-02T12:58:44.393Z,1.85
2022-08-02T13:01:59.250Z,1.77
2022-08-02T13:05:11.822Z,1.50
2022-08-02T13:08:22.541Z,1.60
2022-08-02T13:11:30.316Z,1.73
2022-08-02T13:14:42.051Z,2.17
2022-08-02T13:17:55.813Z,1.88
2022-08-02T13:21:07.456Z,1.70
2022-08-02T13:24:38.135Z,1.90
2022-08-02T13:27:47.878Z,1.70
2022-08-02T13:31:06.031Z,1.90
2022-08-02T13:34:24.870Z,1.98
2022-08-02T13:37:33.399Z,1.70
2022-08-02T13:41:04.678Z,1.77
2022-08-02T13:44:11.564Z,1.55
2022-08-02T13:47:35.774Z,1.58
2022-08-02T13:50:42.860Z,1.40
2022-08-02T13:53:52.512Z,1.70
2022-08-02T13:56:58.603Z,1.65
2022-08-02T14:00:06.464Z,1.52
2022-08-02T14:03:15.618Z,1.52
2022-08-02T14:06:21.966Z,1.75
2022-08-02T14:09:33.499Z,1.73
2022-08-02T14:12:43.161Z,1.50
2022-08-02T14:15:50.263Z,1.50
2022-08-02T14:18:58.705Z,1.63
2022-08-02T14:22:21.083Z,1.70
2022-08-02T14:25:33.463Z,1.52
2022-08-02T14:28:46.775Z,1.60
2022-08-02T14:31:58.699Z,1.48
2022-08-02T14:35:06.463Z,1.50
2022-08-02T14:38:16.144Z,1.30
2022-08-02T14:41:25.181Z,1.63
2022-08-02T14:44:37.526Z,1.58
2022-08-02T14:47:47.848Z,1.40
2022-08-02T14:50:57.473Z,1.60
2022-08-02T14:54:06.396Z,1.60
2022-08-02T14:57:22.079Z,1.73
2022-08-02T15:00:31.657Z,1.90
2022-08-02T15:03:47.287Z,1.42
2022-08-02T15:06:54.670Z,1.60
2022-08-02T15:10:03.872Z,1.52
2022-08-02T15:13:13.005Z,1.45
2022-08-02T15:16:19.853Z,1.80
2022-08-02T15:19:56.511Z,1.83
2022-08-02T15:22:53.274Z,1.60
2022-08-02T15:26:03.230Z,1.70
2022-08-02T15:29:11.868Z,1.85
2022-08-02T15:32:20.263Z,1.55
2022-08-02T15:35:26.469Z,1.70
2022-08-02T15:38:33.531Z,1.83
2022-08-02T15:41:43.706Z,1.50
2022-08-02T15:44:59.133Z,1.45
2022-08-02T15:48:12.693Z,1.65
2022-08-02T15:55:22.932Z,1.80
2022-08-02T15:58:44.220Z,1.55
2022-08-02T16:01:53.183Z,1.75
2022-08-02T16:05:14.158Z,1.60
2022-08-02T16:08:29.878Z,1.63
2022-08-02T16:11:35.694Z,1.60
2022-08-02T16:14:48.005Z,1.95
2022-08-02T16:18:12.912Z,1.83
2022-08-02T16:21:26.888Z,1.80
2022-08-02T16:24:56.402Z,2.10
2022-08-02T16:28:08.932Z,1.48
2022-08-02T16:31:19.682Z,1.80
2022-08-02T16:35:07.063Z,3.50
2022-08-02T16:38:10.439Z,1.88
2022-08-02T16:41:20.673Z,1.70
2022-08-02T16:44:30.465Z,1.83
2022-08-02T16:47:42.847Z,1.30
2022-08-02T16:51:03.102Z,1.40
2022-08-02T16:54:11.724Z,1.60
2022-08-02T16:57:20.118Z,1.55
2022-08-02T17:00:32.188Z,1.80
2022-08-02T17:03:56.150Z,1.55
2022-08-02T17:07:11.147Z,1.65
2022-08-02T17:10:35.128Z,1.50
2022-08-02T17:13:53.680Z,1.73
2022-08-02T17:17:14.501Z,1.75
2022-08-02T17:20:28.577Z,1.85
2022-08-02T17:24:04.558Z,1.83
2022-08-02T17:27:07.271Z,1.80
2022-08-02T17:30:13.751Z,1.67
2022-08-02T17:33:20.312Z,1.30
2022-08-02T17:36:26.619Z,1.67
2022-08-02T17:39:44.422Z,1.80
2022-08-02T17:43:14.258Z,1.48
2022-08-02T17:46:24.927Z,1.80
2022-08-02T17:49:39.455Z,1.60
2022-08-02T17:52:53.297Z,1.58
2022-08-02T17:56:00.997Z,1.52
2022-08-02T17:59:30.650Z,1.63
2022-08-02T18:02:52.727Z,2.00
2022-08-02T18:06:03.673Z,1.65
2022-08-02T18:09:13.316Z,1.50
2022-08-02T18:12:21.301Z,1.75
2022-08-02T18:15:27.569Z,1.50
2022-08-02T18:22:19.360Z,1.85
2022-08-02T18:25:37.278Z,1.75
2022-08-02T18:33:57.984Z,1.60
2022-08-02T18:37:04.695Z,1.50
2022-08-02T18:40:57.980Z,1.40
2022-08-02T18:44:27.049Z,1.60
2022-08-02T18:48:07.351Z,1.70
2022-08-02T18:51:27.044Z,1.83
2022-08-02T18:55:17.482Z,1.55
2022-08-02T19:02:53.979Z,1.60
2022-08-02T19:07:06.959Z,1.50
2022-08-02T19:10:27.692Z,1.50
2022-08-02T19:17:55.714Z,1.40
2022-08-02T19:22:26.684Z,1.50
2022-08-02T19:25:01.523Z,1.63
2022-08-02T19:28:05.023Z,1.70
2022-08-02T19:31:11.309Z,1.70
2022-08-02T19:34:14.466Z,1.60
2022-08-02T19:37:19.094Z,1.50
2022-08-02T19:40:25.871Z,1.73
2022-08-02T19:44:23.385Z,1.80
2022-08-02T19:46:51.247Z,1.58
2022-08-02T19:49:54.829Z,1.73
2022-08-02T19:52:57.548Z,1.30
2022-08-02T19:56:03.136Z,1.95
2022-08-02T19:59:12.910Z,1.65
2022-08-02T20:02:17.179Z,1.80
2022-08-02T20:05:23.777Z,1.60
2022-08-02T20:08:31.642Z,1.95
2022-08-02T20:11:40.266Z,1.80
2022-08-02T20:18:06.725Z,1.50
2022-08-02T20:21:30.549Z,1.38
2022-08-02T20:24:33.586Z,2.42
2022-08-02T20:27:37.714Z,1.98
2022-08-02T20:30:54.991Z,1.80
2022-08-02T20:33:57.821Z,1.38
2022-08-02T20:37:00.538Z,1.60
2022-08-02T20:40:23.887Z,1.50
2022-08-02T20:43:31.433Z,1.70
2022-08-02T20:46:34.347Z,1.52
2022-08-02T20:49:58.237Z,2.05
2022-08-02T20:53:01.421Z,1.67
2022-08-02T20:56:07.025Z,1.85
2022-08-02T20:59:15.515Z,2.10
2022-08-02T21:02:19.397Z,1.60
2022-08-02T21:05:26.855Z,2.20
2022-08-02T21:08:46.264Z,2.50
2022-08-02T21:11:50.995Z,2.22
2022-08-02T21:14:55.213Z,2.50
2022-08-02T21:17:59.604Z,2.20
2022-08-02T21:21:08.845Z,2.35
2022-08-02T21:24:12.498Z,1.80
2022-08-02T21:27:53.152Z,1.85
2022-08-02T21:30:39.864Z,2.00
2022-08-02T21:37:10.150Z,1.90
2022-08-02T21:40:14.045Z,2.22
2022-08-02T21:43:16.765Z,2.28
2022-08-02T21:46:40.755Z,2.88
2022-08-02T21:50:12.708Z,3.45
2022-08-02T21:53:13.347Z,2.40
2022-08-02T21:56:21.605Z,2.10
2022-08-02T21:59:26.815Z,2.50
2022-08-02T22:02:31.323Z,1.92
2022-08-02T22:05:37.400Z,1.77
2022-08-02T22:08:40.338Z,2.10
2022-08-02T22:11:43.216Z,2.00
2022-08-02T22:14:49.779Z,1.92
2022-08-02T22:18:00.080Z,1.80
2022-08-02T22:21:03.066Z,1.58
2022-08-02T22:24:19.391Z,2.15
2022-08-02T22:28:35.182Z,2.00
2022-08-02T22:30:53.079Z,1.92
2022-08-02T22:34:26.994Z,2.28
2022-08-02T22:38:16.263Z,2.08
2022-08-02T22:40:55.416Z,2.08
2022-08-02T22:44:13.551Z,2.22
2022-08-02T22:47:24.030Z,1.83
2022-08-02T22:50:36.522Z,1.92
2022-08-02T22:53:45.035Z,1.88
2022-08-02T22:56:56.122Z,2.10
2022-08-02T22:59:08.206Z,1.52
2022-08-02T22:59:11.916Z,2.22
2022-08-02T23:00:08.531Z,1.95
2022-08-02T23:03:15.691Z,2.20
2022-08-02T23:06:27.284Z,2.10
2022-08-02T23:09:35.218Z,1.98
2022-08-02T23:12:43.021Z,1.60
2022-08-02T23:16:05.570Z,2.10
2022-08-02T23:19:29.401Z,2.25
2022-08-02T23:22:42.060Z,1.70
2022-08-02T23:25:50.400Z,2.20
2022-08-02T23:29:07.162Z,2.50
2022-08-02T23:32:15.407Z,2.17
2022-08-02T23:35:32.683Z,2.10
2022-08-02T23:38:46.676Z,2.25
2022-08-02T23:41:54.890Z,2.33
2022-08-02T23:45:04.725Z,2.38
2022-08-02T23:48:11.013Z,2.10
2022-08-02T23:51:21.928Z,2.00
2022-08-02T23:54:32.786Z,2.67
2022-08-02T23:57:39.333Z,2.70
